Weather observations for the past three days for
Anson County Airport
Imperial (Metric)
Date Time (edt) Wind (mph) Vis. (mi.) Weather Sky Cond. Temperature (ºF) Relative Humidity Wind Chill (°F) Heat Index (°F) Pressure Precipitation (in)
Air Dwpt 6 hour altimeter (in) sea level (mb) 1 hr 3 hr 6 hr
Max. Min.
05 09:15 Calm 10.00 Fair CLR 82.2 75.4 80% 89 29.93 0.0
05 08:55 SW 3 10.00 Fair CLR 81.1 75.4 83% 87 29.93 0.0
05 08:35 SW 3 10.00 Fair CLR 79.9 75.4 86% 85 29.93 0.0
05 08:15 Calm 10.00 Fair CLR 79 75.2 88% 83 29.93 0.0
05 07:55 SW 3 10.00 Fair CLR 78.3 75.2 80.6 74.5 90% 81 29.93 0.0
05 07:35 Calm 10.00 Fair CLR 77.5 75 92% 79 29.92 0.0
05 07:15 SW 3 10.00 Fair CLR 77.2 74.8 93% 78 29.91 0.0
05 06:55 SW 3 10.00 Fair CLR 77 74.7 93% 78 29.9 0.0
05 06:35 SW 5 10.00 Fair CLR 77.2 74.7 92% 79 29.9 0.0
05 06:15 Calm 10.00 Fair CLR 76.5 74.5 94% 77 29.9 0.0
05 05:55 Calm 10.00 Fair CLR 76.1 74.5 95% 76 29.9 0.0
05 05:35 Calm 10.00 Fair CLR 75.7 74.1 95% 75 29.9 0.0
05 05:15 S 3 10.00 Fair CLR 74.8 73.8 96% 29.91 0.0
05 04:55 Calm 10.00 Fair CLR 76.1 74.3 94% 76 29.91 0.0
05 04:35 Calm 10.00 Fair CLR 76.3 74.3 94% 76 29.91 0.0
05 04:15 Calm 10.00 Fair CLR 75.6 73.9 95% 74 29.91 0.0
05 03:55 Calm 10.00 Fair CLR 76.5 74.3 93% 77 29.92 0.0
05 03:35 Calm 10.00 Fair CLR 76.3 74.3 94% 76 29.92 0.0
05 03:15 E 3 10.00 Fair CLR 77.2 74.3 91% 79 29.92 0.0
05 02:55 Calm 10.00 Fair CLR 79 73.9 85% 83 29.92 0.0
05 02:35 Calm 10.00 Fair CLR 79.7 73.9 83% 84 29.92 0.0
05 02:15 Calm 10.00 Fair CLR 80.2 73.9 81% 85 29.93 0.0
05 01:55 Calm 10.00 Fair CLR 80.6 73.9 84.9 80.6 80% 86 29.93 0.0
05 01:15 Calm 10.00 Fair CLR 81.5 73.4 77% 87 29.95 0.0
05 00:55 Calm 10.00 Fair CLR 82 72.9 74% 87 29.95 0.0
05 00:35 S 3 10.00 Fair CLR 82.4 72.7 73% 88 29.95 0.0
05 00:15 S 3 10.00 Fair CLR 83.3 71.8 68% 89 29.96 0.0
04 23:55 S 3 10.00 Fair CLR 83.8 71.8 67% 89 29.96 0.0
04 23:35 S 3 10.00 Fair CLR 84.2 71.6 66% 90 29.95 0.0
04 23:15 S 3 10.00 Fair CLR 84.4 71.4 65% 90 29.95 0.0
04 22:55 S 3 10.00 Fair CLR 84.7 71.8 65% 90 29.95 0.0
04 22:35 Calm 10.00 Fair CLR 83.1 73.4 73% 89 29.96 0.0
04 22:15 S 5 10.00 Fair CLR 82.8 75 78% 90 29.96 0.0
04 21:55 Calm 10.00 Fair CLR 80.6 77 89% 87 29.95 0.0
04 21:35 Calm 10.00 Fair CLR 81 77.5 89% 88 29.95 0.0
04 21:15 Calm 10.00 Fair CLR 81.7 77.9 88% 90 29.94 0.0
04 20:55 Calm 10.00 Fair CLR 82.9 78.1 85% 93 29.95 0.0
04 20:35 Calm 10.00 Fair CLR 82.6 78.8 88% 93 29.95 0.0
04 20:15 Calm 10.00 Fair CLR 83.1 78.3 85% 93 29.95 0.0
04 19:55 Calm 10.00 Fair CLR 84.6 77.9 96.3 84.6 81% 96 29.93 0.0
04 19:35 Calm 10.00 Fair CLR 87.8 77.2 71% 100 29.93 0.0
04 19:15 Calm 10.00 Fair CLR 91.4 74.7 58% 102 29.93 0.0
04 18:55 Calm 10.00 Fair CLR 93.2 72.3 51% 102 29.92 0.0
04 18:35 S 3 10.00 Fair CLR 94.1 71.6 48% 102 29.92 0.0
04 18:15 S 5 10.00 Fair CLR 95 69.8 44% 101 29.92 0.0
04 17:55 S 3 10.00 Fair CLR 95.4 70 44% 102 29.93 0.0
04 17:35 S 5 10.00 Fair CLR 95.7 70.7 44% 103 29.93 0.0
04 17:15 S 6 10.00 Fair CLR 95.9 70.3 44% 103 29.93 0.0
04 16:55 SE 5 10.00 Fair CLR 95.9 70.5 44% 103 29.93 0.0
04 16:35 S 6 10.00 Fair CLR 96.1 71.6 45% 104 29.95 0.0
04 16:15 S 3 10.00 Fair CLR 95.5 72.1 47% 104 29.95 0.0
04 15:55 S 6 10.00 Fair CLR 95.9 72.1 46% 105 29.96 0.0
04 15:35 SE 6 10.00 Partly Cloudy SCT060 95.9 73 48% 106 29.97 0.0
04 15:15 SW 6 10.00 Fair CLR 95.9 73 48% 106 29.99 0.0
04 14:55 SE 3 10.00 Fair CLR 95.2 72.9 49% 105 29.99 0.0
04 14:35 S 5 10.00 Fair CLR 95 72.5 48% 104 30 0.0
04 14:15 SE 3 7.00 Fair CLR 94.3 72.7 50% 103 30 0.0
04 13:55 S 3 7.00 Fair CLR 93.7 72.9 94.3 75.4 51% 103 30.01 0.0
04 13:35 Calm 10.00 Fair CLR 93 72.9 52% 102 30.01 0.0
04 13:15 NW 3 5.00 Fair CLR 92.3 73.6 54% 102 30.02 0.0
04 12:55 SW 6 5.00 Fair CLR 92.3 73.2 54% 101 30.03 0.0
04 12:35 S 6 5.00 Fair CLR 90.9 73.9 58% 100 30.03 0.0
04 12:15 SW 5 5.00 Fair CLR 90.9 74.5 59% 101 30.04 0.0
04 11:35 SW 5 7.00 Fair CLR 89.2 75.2 63% 100 30.05 0.0
04 11:15 S 5 10.00 Fair CLR 88.2 74.8 65% 98 30.05 0.0
04 10:55 W 5 10.00 Fair CLR 88.5 74.5 63% 98 30.05 0.0
04 10:35 Calm 10.00 Fair CLR 86.4 74.7 68% 95 30.05 0.0
04 10:15 S 6 10.00 Fair CLR 85.3 74.7 71% 94 30.05 0.0
04 09:55 SW 8 10.00 Fair CLR 84.2 74.8 74% 92 30.05 0.0
04 09:35 SW 5 10.00 Fair CLR 82.8 75.9 80% 91 30.05 0.0
04 09:15 SW 6 10.00 Fair CLR 81.7 76.1 83% 89 30.05 0.0
04 08:55 SW 6 10.00 Fair CLR 80.2 76.5 88% 86 30.05 0.0
04 08:35 SW 3 10.00 Fair CLR 79 75.9 90% 83 30.05 0.0
04 08:15 Calm 7.00 Fair CLR 77.2 75.2 94% 78 30.05 0.0
04 07:55 Calm 10.00 Fair CLR 75.2 74.3 78.8 71.6 97% 73 30.05 0.0
04 07:35 Calm 10.00 Fair CLR 72.9 71.8 96% 30.05 0.0
04 07:15 Calm 10.00 Fair CLR 71.6 70.7 97% 30.04 0.0
04 06:55 Calm 10.00 Fair CLR 72.5 71.6 97% 30.04 0.0
04 06:35 Calm 10.00 Fair CLR 73.4 72.1 96% 30.03 0.0
04 06:15 Calm 10.00 Fair CLR 72.5 71.2 96% 30.03 0.0
04 05:55 Calm 10.00 Fair CLR 72.5 71.2 96% 30.02 0.0
04 05:35 Calm 10.00 Fair CLR 73.2 72.1 96% 30.02 0.0
04 05:15 Calm 10.00 Fair CLR 73.6 72.5 96% 30.02 0.0
04 04:55 Calm 10.00 Fair CLR 74.3 72.9 95% 30.02 0.0
04 04:35 Calm 10.00 Fair CLR 74.7 72.9 94% 30.02 0.0
04 04:15 Calm 10.00 Fair CLR 74.7 73 95% 30.01 0.0
04 03:55 Calm 10.00 Fair CLR 74.3 73 96% 30.01 0.0
04 03:35 Calm 10.00 Fair CLR 73.9 72.9 96% 30.01 0.0
04 03:15 Calm 10.00 Fair CLR 75.2 73.4 94% 74 30.02 0.0
04 02:55 Calm 10.00 Fair CLR 76.3 73.4 91% 77 30.02 0.0
04 02:35 Calm 10.00 Fair CLR 76.8 73.4 89% 78 30.03 0.0
04 02:15 Calm 10.00 Fair CLR 78.8 73.4 84% 82 30.03 0.0
04 01:55 Calm 10.00 Fair CLR 78.4 73 85.6 78.4 84% 81 30.04 0.0
04 01:35 Calm 10.00 Fair CLR 79.7 73 80% 84 30.04 0.0
04 01:15 S 3 10.00 Fair CLR 79.9 72.9 79% 84 30.04 0.0
04 00:55 S 3 10.00 Fair CLR 80.4 72.5 77% 85 30.04 0.0
04 00:35 S 3 10.00 Fair CLR 80.6 72.1 76% 85 30.04 0.0
04 00:15 S 3 10.00 Fair CLR 81 72 74% 85 30.04 0.0
03 23:55 S 3 10.00 Fair CLR 81.7 72.1 73% 86 30.04 0.0
03 23:35 S 3 10.00 Fair CLR 82.4 72 71% 87 30.05 0.0
03 23:15 S 5 10.00 Fair CLR 82.4 72.5 72% 88 30.05 0.0
03 22:55 S 6 10.00 Fair CLR 82.8 72.9 72% 88 30.05 0.0
03 22:35 S 5 10.00 Fair CLR 83.5 73 71% 90 30.05 0.0
03 22:15 S 5 10.00 Fair CLR 83.8 73.4 71% 90 30.05 0.0
03 21:55 S 6 10.00 Fair CLR 84.4 73.6 70% 91 30.04 0.0
03 21:35 S 7 10.00 Fair CLR 84.4 74.3 72% 92 30.03 0.0
03 21:15 SE 6 10.00 Fair CLR 84.2 75 74% 92 30.02 0.0
03 20:55 S 5 10.00 Fair CLR 84.6 75.2 74% 93 30.01 0.0
03 20:35 S 5 10.00 Fair CLR 84.6 76.1 76% 94 30.01 0.0
03 20:15 SE 3 10.00 Fair CLR 85.3 77.9 79% 97 30 0.0
03 19:55 Calm 10.00 Fair CLR 85.8 79.2 98.8 85.8 81% 100 29.99 0.0 0.1
03 19:35 Calm 10.00 Fair CLR 88.2 78.3 73% 102 29.99 0.0
03 19:15 Calm 10.00 Fair CLR 90.5 77 65% 104 29.98 0.0
03 18:55 SE 3 10.00 Fair CLR 93.2 74.8 55% 104 29.98 0.0
03 18:35 SE 3 10.00 Fair CLR 94.3 73.2 51% 104 29.99 0.0
03 18:15 SE 5 10.00 Fair CLR 95 72.9 49% 104 29.99 0.0
03 17:55 SE 6 10.00 Fair CLR 95.4 73.2 49% 105 29.99 0.0
03 17:35 SE 3 10.00 Fair CLR 94.6 72.9 49% 104 29.99 0.0
03 17:15 SE 8 10.00 Fair CLR 97.3 70.7 42% 105 29.99 0.0
03 16:55 S 5 10.00 Fair CLR 97.2 70.5 42% 105 29.99 0.0 0.1
03 16:35 SE 3 7.00 Fair CLR 97.5 69.6 40% 104 30 0.0
03 16:15 SE 3 10.00 Fair CLR 98.1 70.3 41% 106 30 0.0
03 15:55 Calm 10.00 Fair CLR 97.5 69.8 41% 104 30.01 0.0 0.1
03 15:35 SE 6 10.00 Fair CLR 97.5 69.8 41% 104 30.01 0.0 0.1
03 14:55 SE 3 10.00 Fair CLR 97.2 70 41% 104 30.03 0.0
03 14:35 S 5 10.00 Fair CLR 96.4 69.8 42% 103 30.03 0.0
03 14:15 S 3 10.00 Fair CLR 96.8 69.4 41% 103 30.04 0.0
03 13:55 N 5 10.00 Fair CLR 95.5 71.2 97 74.7 45% 103 30.04 0.0
03 13:35 Calm 10.00 Fair CLR 96.4 70.7 43% 104 30.05 0.0
03 13:15 Calm 10.00 Fair CLR 95.9 73 48% 106 30.05 0.0
03 12:55 NE 5 7.00 Fair CLR 93.7 74.7 54% 105 30.06 0.0
03 12:35 E 5 7.00 Fair CLR 94.6 75.2 53% 107 30.07 0.0
03 12:15 Calm 10.00 Fair CLR 92.8 74.1 55% 103 30.07 0.0
03 11:55 Calm 10.00 Fair CLR 92.3 75.2 58% 104 30.08 0.0
03 11:35 Calm 10.00 Fair CLR 90.5 75 61% 101 30.08 0.0
03 11:15 N 3 10.00 Fair CLR 89.1 75.6 64% 100 30.08 0.0
03 10:55 Calm 10.00 Fair CLR 88.3 76.1 67% 100 30.07 0.0
03 10:35 NW 3 10.00 Fair CLR 86.9 75.6 69% 97 30.07 0.0
03 10:15 NW 3 10.00 Fair CLR 86 74.3 68% 94 30.07 0.0
03 09:55 NW 3 10.00 Fair CLR 85.3 74.5 70% 93 30.07 0.0
03 09:35 Calm 10.00 Fair CLR 83.8 74.3 73% 91 30.07 0.0
03 09:15 Calm 10.00 Fair CLR 81.7 74.7 79% 88 30.07 0.0
03 08:55 Calm 10.00 Fair CLR 80.2 75.4 85% 86 30.08 0.0
03 08:35 Calm 10.00 Fair CLR 78.3 75.6 91% 81 30.08 0.0
03 08:15 Calm 10.00 Fair CLR 76.3 74.7 95% 76 30.08 0.0
03 07:55 Calm 7.00 Fair CLR 74.5 73.4 77 72.7 96% 30.08 0.0
03 07:35 Calm 7.00 Fair CLR 72.9 71.8 96% 30.07 0.0
03 07:15 Calm 7.00 Fair CLR 73.4 72.5 97% 30.07 0.0
03 06:55 Calm 10.00 Fair CLR 73.4 72.5 97% 30.06 0.0
03 06:35 Calm 10.00 Fair CLR 73.8 72.7 96% 30.05 0.0
03 06:15 Calm 10.00 Fair CLR 73.2 72 96% 30.05 0.0
03 05:55 Calm 10.00 Fair CLR 73.9 72.9 96% 30.05 0.0
03 05:35 Calm 10.00 Fair CLR 74.7 73.6 96% 30.05 0.0
03 05:15 Calm 7.00 Fair CLR 73.9 72.9 96% 30.05 0.0
03 04:55 Calm 10.00 Fair CLR 74.7 73.6 96% 30.05 0.0
03 04:35 Calm 10.00 Fair CLR 75 73.9 96% 73 30.04 0.0
03 04:15 Calm 10.00 Fair CLR 75.9 74.5 95% 75 30.04 0.0
03 03:55 Calm 10.00 Fair CLR 74.8 73.8 96% 30.04 0.0
03 03:35 Calm 10.00 Fair CLR 75 73.9 96% 73 30.03 0.0
03 03:15 Calm 10.00 Fair CLR 75.6 74.3 96% 74 30.03 0.0
03 02:55 Calm 10.00 Fair CLR 76.1 75 96% 76 30.03 0.0
03 02:35 Calm 10.00 Fair CLR 76.8 75.2 95% 77 30.03 0.0
03 02:15 Calm 10.00 Fair CLR 76.6 75.4 96% 77 30.03 0.0
03 01:55 Calm 10.00 Fair CLR 76.6 75.6 86.9 76.5 96% 77 30.03 0.0
03 01:35 Calm 10.00 Fair CLR 77 75.6 95% 78 30.03 0.0
03 01:15 Calm 10.00 Fair CLR 76.5 75.4 96% 76 30.03 0.0
03 00:55 Calm 10.00 Fair CLR 77.9 75.9 94% 80 30.03 0.0
03 00:35 SE 3 10.00 Fair CLR 77.2 75.4 94% 78 30.03 0.0
03 00:15 Calm 10.00 Fair CLR 77.9 76.1 94% 80 30.02 0.0
02 23:55 Calm 10.00 Fair CLR 78.1 76.3 94% 81 30.02 0.0
02 23:35 W 3 10.00 Fair CLR 79.5 77.4 93% 85 30.03 0.0
02 23:15 Calm 10.00 Fair CLR 79.3 77.5 94% 84 30.04 0.0
02 22:55 Calm 10.00 Fair CLR 80.4 77.5 91% 87 30.05 0.0
02 22:35 Calm 10.00 Fair CLR 79.7 77.7 94% 85 30.05 0.0
02 22:15 Calm 10.00 Fair CLR 80.2 77.9 93% 87 30.06 0.0
02 21:55 Calm 10.00 Fair CLR 81 78.3 92% 89 30.05 0.0
02 21:35 Calm 10.00 Fair CLR 81 78.6 93% 89 30.05 0.0
02 21:15 Calm 10.00 Fair CLR 82.4 79 89% 93 30.04 0.0
02 20:55 Calm 10.00 Fair CLR 83.3 79 87% 94 30.03 0.0
02 20:35 Calm 10.00 Fair CLR 84.4 79 84% 97 30.03 0.0
02 20:15 Calm 10.00 Fair CLR 85.5 78.8 81% 98 30.02 0.0
02 19:55 Calm 10.00 Fair CLR 86.9 78.3 98.2 86.9 76% 100 30.02 0.0
02 19:35 Calm 10.00 Fair CLR 88.5 77.9 71% 102 30.02 0.0
02 19:15 Calm 10.00 Fair CLR 92.3 74.3 56% 103 30.02 0.0
02 18:55 Calm 10.00 Fair CLR 95 70.2 45% 102 30.02 0.0
02 18:35 Calm 10.00 Fair CLR 96.1 67.1 39% 100 30.02 0.0
02 18:15 Calm 10.00 Fair CLR 96.4 66.7 38% 100 30.02 0.0
02 17:55 W 3 10.00 Fair CLR 96.6 67.1 38% 101 30.02 0.0
02 17:35 Calm 10.00 Fair CLR 96.6 66.9 38% 101 30.02 0.0
02 17:15 NW 3 10.00 Fair CLR 97 65.8 36% 100 30.03 0.0
02 16:55 N 5 10.00 Fair CLR 96.8 66.6 37% 101 30.03 0.0
02 16:35 N 5 10.00 Fair CLR 97.3 67.6 38% 102 30.03 0.0
02 16:15 W 3 10.00 Fair CLR 98.1 66.6 36% 102 30.03 0.0
02 15:55 W 3 10.00 Fair CLR 97.5 66.9 37% 102 30.04 0.0
02 15:35 NW 5 7.00 Fair CLR 97.7 65.8 35% 101 30.04 0.0
02 15:15 NW 3 7.00 Fair CLR 97 68.4 39% 102 30.05 0.0
02 14:55 Calm 7.00 Fair CLR 97.3 67.1 37% 102 30.05 0.0
02 14:35 W 3 7.00 Fair CLR 96.8 67.1 38% 101 30.06 0.0
02 14:15 W 5 7.00 Fair CLR 97 68 39% 102 30.06 0.0
02 13:55 W 3 7.00 Fair CLR 96.1 68.7 96.3 74.1 41% 102 30.07 0.0
02 13:35 NW 5 7.00 Fair CLR 96.3 69.8 42% 103 30.07 0.0
02 13:15 Calm 7.00 Fair CLR 95 71.6 47% 103 30.08 0.0
02 12:55 N 6 10.00 Fair CLR 94.6 71.8 48% 103 30.08 0.0
02 12:35 Calm 10.00 Fair CLR 93.4 72.1 50% 102 30.08 0.0
02 12:15 NW 3 7.00 Fair CLR 93.4 71.6 49% 101 30.09 0.0
02 11:55 NE 3 7.00 Fair CLR 92.3 72.9 53% 101 30.09 0.0
02 11:35 N 3 7.00 Fair CLR 90.9 73.6 57% 100 30.09 0.0
02 11:15 Calm 7.00 Fair CLR 90.7 75.6 61% 102 30.09 0.0
02 10:55 Calm 7.00 Fair CLR 88.3 74.7 64% 98 30.09 0.0
02 10:35 N 3 7.00 Fair CLR 86.9 75 68% 96 30.09 0.0
02 10:15 N 3 10.00 Fair CLR 85.1 75.2 72% 94 30.08 0.0
02 09:55 Calm 7.00 Fair CLR 83.7 74.8 75% 91 30.08 0.0
02 09:35 Calm 10.00 Fair CLR 82.2 74.8 78% 89 30.08 0.0
Date Time (edt) Wind (mph) Vis. (mi.) Weather Sky Cond. Air Dwpt Max. Min. Relative Humidity Wind Chill (°F) Heat Index (°F) altimeter (in) sea level (mb) 1 hr 3 hr 6 hr
6 hour
Temperature (ºF) Pressure Precipitation (in)